Time;durP1;ratioP1;P1;durP2;ratioP2;P2;SDS_P1;SDS_P2;PMS_P1;PMS_P2;Temp;Humidity;BMP_temperature;BMP_pressure;BME280_temperature;BME280_humidity;BME280_pressure;Samples;Min_cycle;Max_cycle;Signal;HPM_P1;HPM_P2
2021/12/27 00:04:04;;;;;;;42.10;28.27;;;;;;;1.98;100.00;100232.22;10504548;28;20040;-68
2021/12/27 00:09:04;;;;;;;40.85;24.20;;;;;;;2.06;100.00;100233.09;10504199;28;20041;-69
2021/12/27 00:14:05;;;;;;;49.80;28.00;;;;;;;2.14;100.00;100223.47;10501998;28;20090;-69
2021/12/27 00:19:05;;;;;;;55.65;25.75;;;;;;;2.18;100.00;100216.81;10503673;28;20121;-69
2021/12/27 00:24:06;;;;;;;33.70;24.52;;;;;;;2.22;100.00;100205.63;10504200;28;20028;-69
2021/12/27 00:29:06;;;;;;;40.17;25.15;;;;;;;2.24;100.00;100205.50;10502269;28;20357;-68
2021/12/27 00:34:07;;;;;;;42.03;26.08;;;;;;;2.27;100.00;100192.66;10502614;28;20029;-69
2021/12/27 00:39:07;;;;;;;31.65;23.60;;;;;;;2.28;100.00;100188.97;10503008;28;20457;-68
2021/12/27 00:44:07;;;;;;;32.17;23.77;;;;;;;2.33;100.00;100177.81;10485402;28;20072;-69
2021/12/27 00:49:08;;;;;;;41.58;24.23;;;;;;;2.32;100.00;100174.28;10502737;28;20060;-69
2021/12/27 00:54:08;;;;;;;51.55;27.92;;;;;;;2.37;100.00;100165.81;10502777;28;20056;-69
2021/12/27 00:59:09;;;;;;;36.95;20.60;;;;;;;2.40;100.00;100165.47;10501597;28;20392;-68
2021/12/27 01:04:09;;;;;;;32.05;20.23;;;;;;;2.40;100.00;100160.13;10501175;28;20040;-68
2021/12/27 01:09:14;;;;;;;30.55;23.23;;;;;;;2.49;100.00;100160.97;10501199;28;20064;-68
2021/12/27 01:14:27;;;;;;;35.03;23.83;;;;;;;2.46;100.00;100154.13;10501538;28;20456;-68
2021/12/27 01:19:27;;;;;;;32.28;22.48;;;;;;;2.43;100.00;100138.44;10501210;28;20040;-68
2021/12/27 01:24:27;;;;;;;32.58;20.73;;;;;;;2.37;100.00;100139.06;10499235;28;20389;-68
2021/12/27 01:29:28;;;;;;;40.22;25.67;;;;;;;2.42;100.00;100136.75;10501032;28;20044;-69
2021/12/27 01:34:30;;;;;;;39.08;24.15;;;;;;;2.50;100.00;100134.09;10500193;28;20033;-69
2021/12/27 01:39:30;;;;;;;39.10;24.17;;;;;;;2.59;100.00;100140.31;10501330;28;20033;-69
2021/12/27 01:44:31;;;;;;;30.77;22.73;;;;;;;2.56;100.00;100121.91;10501728;28;20028;-69
2021/12/27 01:49:31;;;;;;;40.67;24.65;;;;;;;2.54;100.00;100134.59;10517009;28;20090;-69
2021/12/27 01:54:32;;;;;;;33.53;26.83;;;;;;;2.68;100.00;100138.44;10500166;28;20364;-69
2021/12/27 01:59:32;;;;;;;38.83;23.55;;;;;;;2.75;100.00;100145.66;10498680;28;20032;-69
2021/12/27 02:04:32;;;;;;;41.55;23.20;;;;;;;2.84;100.00;100137.63;10497802;28;20028;-69
2021/12/27 02:09:53;;;;;;;30.77;22.77;;;;;;;2.83;100.00;100142.16;10500095;28;20109;-69
2021/12/27 02:14:54;;;;;;;34.15;22.55;;;;;;;2.92;100.00;100141.16;10498177;28;20460;-68
2021/12/27 02:19:55;;;;;;;27.73;20.52;;;;;;;2.96;100.00;100142.50;10497926;28;20072;-70
2021/12/27 02:24:55;;;;;;;32.60;22.27;;;;;;;2.98;100.00;100139.66;10498949;28;20060;-70
2021/12/27 02:29:56;;;;;;;30.45;20.58;;;;;;;3.07;100.00;100149.38;10514330;28;20039;-71
2021/12/27 02:34:56;;;;;;;24.73;18.25;;;;;;;3.09;100.00;100138.47;10498653;28;20115;-69
2021/12/27 02:39:56;;;;;;;26.15;18.40;;;;;;;3.16;100.00;100131.44;10497646;28;20044;-70
2021/12/27 02:44:57;;;;;;;35.60;19.15;;;;;;;3.20;100.00;100125.59;10499138;28;20562;-69
2021/12/27 02:49:57;;;;;;;40.83;17.38;;;;;;;3.19;100.00;100117.72;10498512;28;20040;-70
2021/12/27 02:54:57;;;;;;;32.00;17.20;;;;;;;3.20;100.00;100108.72;10498096;28;20032;-69
2021/12/27 03:00:00;;;;;;;37.05;19.08;;;;;;;3.24;100.00;100099.34;10497647;28;20060;-70
2021/12/27 03:05:03;;;;;;;31.88;17.65;;;;;;;3.20;100.00;100103.38;10498660;28;20033;-70
2021/12/27 03:10:04;;;;;;;22.25;17.55;;;;;;;3.22;100.00;100086.16;10498093;28;20392;-70
2021/12/27 03:15:08;;;;;;;35.75;17.35;;;;;;;3.26;100.00;100083.97;10497737;28;20174;-69
2021/12/27 03:20:09;;;;;;;38.33;17.60;;;;;;;3.26;100.00;100078.63;10512767;28;20061;-70
2021/12/27 03:25:14;;;;;;;26.02;14.70;;;;;;;3.29;100.00;100074.75;10479718;28;20037;-70
2021/12/27 03:30:21;;;;;;;22.95;16.25;;;;;;;3.28;100.00;100065.88;10496394;28;20081;-70
2021/12/27 03:35:34;;;;;;;42.80;21.08;;;;;;;3.30;100.00;100063.88;10498640;28;20119;-70
2021/12/27 03:40:35;;;;;;;21.85;15.63;;;;;;;3.36;100.00;100068.56;10497529;28;20507;-70
2021/12/27 03:45:37;;;;;;;26.65;16.58;;;;;;;3.42;100.00;100070.53;10497241;28;20052;-69
2021/12/27 03:50:38;;;;;;;29.42;19.05;;;;;;;3.45;100.00;100069.38;10500895;28;20442;-69
2021/12/27 03:55:38;;;;;;;50.78;22.00;;;;;;;3.49;100.00;100063.50;10486743;28;20123;-70
2021/12/27 04:05:46;;;;;;;42.25;20.10;;;;;;;3.49;100.00;100044.75;10506132;28;20044;-70
2021/12/27 04:10:47;;;;;;;66.50;23.75;;;;;;;3.47;100.00;100038.72;10502810;28;20388;-70
2021/12/27 04:15:48;;;;;;;38.53;21.63;;;;;;;3.48;100.00;100043.09;10504476;28;20032;-70
2021/12/27 04:20:48;;;;;;;46.17;22.63;;;;;;;3.54;100.00;100028.16;10503841;28;20029;-70
2021/12/27 04:25:49;;;;;;;37.85;19.48;;;;;;;3.58;100.00;100037.53;10503069;28;20537;-70
2021/12/27 04:30:49;;;;;;;67.00;24.65;;;;;;;3.61;100.00;100012.28;10501676;28;20090;-70
2021/12/27 04:35:50;;;;;;;66.65;25.13;;;;;;;3.66;100.00;100012.56;10503332;28;20119;-70
2021/12/27 04:40:50;;;;;;;44.72;21.42;;;;;;;3.69;100.00;100009.53;10501693;28;20056;-70
2021/12/27 04:45:51;;;;;;;52.88;24.17;;;;;;;3.75;100.00;100021.41;10501847;28;20036;-69
2021/12/27 04:50:52;;;;;;;53.17;23.10;;;;;;;3.83;100.00;100018.66;10503210;28;20071;-69
2021/12/27 04:55:53;;;;;;;35.40;22.83;;;;;;;3.84;100.00;100015.81;10500487;28;20491;-70
2021/12/27 05:00:53;;;;;;;36.42;24.90;;;;;;;3.84;100.00;100005.13;10500069;28;20078;-70
2021/12/27 05:05:53;;;;;;;54.45;24.38;;;;;;;3.84;100.00;99999.75;10501863;28;20123;-69
2021/12/27 05:10:54;;;;;;;89.38;28.83;;;;;;;3.87;100.00;99994.06;10501058;28;20048;-69
2021/12/27 05:15:54;;;;;;;48.30;27.63;;;;;;;3.90;100.00;99993.69;10501591;28;20063;-70
2021/12/27 05:20:55;;;;;;;33.83;23.00;;;;;;;3.90;100.00;99990.19;10501410;28;20040;-70
2021/12/27 05:25:55;;;;;;;48.40;26.10;;;;;;;3.93;100.00;99988.00;10500565;28;20090;-70
2021/12/27 05:30:55;;;;;;;59.88;28.85;;;;;;;4.02;100.00;99974.53;10499703;28;20040;-70
2021/12/27 05:35:56;;;;;;;36.50;22.38;;;;;;;4.10;100.00;99978.00;10501244;28;20179;-70
2021/12/27 05:40:56;;;;;;;52.78;25.13;;;;;;;4.14;100.00;99987.34;10500129;28;20056;-70
2021/12/27 05:45:57;;;;;;;70.85;27.83;;;;;;;4.19;100.00;99984.97;10500955;28;20132;-70
2021/12/27 05:50:57;;;;;;;66.88;31.23;;;;;;;4.29;100.00;99992.75;10499573;28;20131;-70
2021/12/27 05:55:58;;;;;;;85.65;31.65;;;;;;;4.36;100.00;99991.03;10500430;28;20032;-70
2021/12/27 06:00:58;;;;;;;60.88;24.90;;;;;;;4.45;100.00;99991.81;10516161;28;20436;-71
2021/12/27 06:05:58;;;;;;;160.93;39.58;;;;;;;4.51;100.00;99992.94;10499645;28;20089;-70
2021/12/27 06:10:59;;;;;;;68.63;32.20;;;;;;;4.49;100.00;99985.06;10499419;28;20036;-69
2021/12/27 06:15:59;;;;;;;99.53;34.78;;;;;;;4.53;100.00;99982.84;10481303;28;20032;-70
2021/12/27 06:20:59;;;;;;;90.38;32.70;;;;;;;4.57;100.00;99971.59;10497134;28;20603;-70
2021/12/27 06:26:00;;;;;;;112.95;35.97;;;;;;;4.61;100.00;99972.06;10498422;28;20114;-69
2021/12/27 06:31:01;;;;;;;84.97;29.70;;;;;;;4.69;100.00;99982.72;10497634;28;20450;-69
2021/12/27 06:36:02;;;;;;;105.60;34.08;;;;;;;4.75;100.00;99981.97;10497576;28;20035;-70
2021/12/27 06:41:02;;;;;;;67.20;30.23;;;;;;;4.77;100.00;99976.44;10499225;28;20105;-69
2021/12/27 06:46:02;;;;;;;67.53;33.20;;;;;;;4.84;100.00;99977.38;10505188;28;20033;-70
2021/12/27 06:51:03;;;;;;;103.72;36.70;;;;;;;4.85;100.00;99982.56;10503528;28;20043;-69
2021/12/27 06:56:05;;;;;;;85.53;30.95;;;;;;;4.93;100.00;99983.50;10498281;28;20035;-69
2021/12/27 07:01:05;;;;;;;76.78;35.72;;;;;;;4.98;100.00;99970.34;10498015;28;20416;-69
2021/12/27 07:06:06;;;;;;;110.18;35.22;;;;;;;5.05;100.00;99973.97;10496763;28;20115;-69
2021/12/27 07:11:06;;;;;;;107.93;37.75;;;;;;;5.11;100.00;99970.56;10498584;28;20032;-70
2021/12/27 07:16:07;;;;;;;59.05;32.60;;;;;;;5.25;100.00;99966.19;10497653;28;20415;-69
2021/12/27 07:21:07;;;;;;;106.85;36.92;;;;;;;5.34;100.00;99967.78;10497849;28;20048;-69
2021/12/27 07:26:07;;;;;;;129.27;39.75;;;;;;;5.45;100.00;99963.78;10504055;28;20040;-70
2021/12/27 07:31:09;;;;;;;128.70;39.58;;;;;;;5.53;100.00;99948.41;10505951;28;20029;-69
2021/12/27 07:36:10;;;;;;;82.88;33.60;;;;;;;5.60;100.00;99954.66;10506303;28;20395;-69
2021/12/27 07:41:10;;;;;;;58.95;30.05;;;;;;;5.68;100.00;99956.44;10506639;28;20060;-70
2021/12/27 07:46:11;;;;;;;142.63;36.17;;;;;;;5.76;100.00;99948.25;10507046;28;20452;-70
2021/12/27 07:51:11;;;;;;;89.47;35.22;;;;;;;5.78;100.00;99953.44;10505705;28;20046;-70
2021/12/27 07:56:11;;;;;;;156.65;41.72;;;;;;;5.82;100.00;99947.47;10505255;28;20108;-70
2021/12/27 08:01:12;;;;;;;105.00;34.85;;;;;;;5.84;100.00;99941.94;10504572;28;20111;-69
2021/12/27 08:06:12;;;;;;;125.45;38.63;;;;;;;5.88;100.00;99945.06;10504518;28;20029;-68
2021/12/27 08:11:13;;;;;;;66.53;29.05;;;;;;;5.97;100.00;99943.97;10503487;28;20411;-68
2021/12/27 08:16:13;;;;;;;58.83;25.17;;;;;;;6.01;100.00;99934.50;10503927;28;20066;-69
2021/12/27 08:21:14;;;;;;;137.98;40.28;;;;;;;6.07;100.00;99931.03;10503119;28;20475;-69
2021/12/27 08:26:14;;;;;;;86.25;30.98;;;;;;;6.15;100.00;99930.88;10503610;28;20066;-69
2021/12/27 08:31:15;;;;;;;60.10;30.45;;;;;;;6.18;100.00;99927.81;10502411;28;20463;-70
2021/12/27 08:36:15;;;;;;;133.15;39.17;;;;;;;6.26;100.00;99922.31;10502531;28;20031;-69
2021/12/27 08:41:16;;;;;;;72.40;32.58;;;;;;;6.30;100.00;99922.75;10502545;28;20056;-69
2021/12/27 08:46:16;;;;;;;109.72;33.28;;;;;;;6.19;100.00;99909.81;10502349;28;20506;-69
2021/12/27 08:51:17;;;;;;;134.70;37.40;;;;;;;6.12;100.00;99899.00;10502580;28;20463;-69
2021/12/27 08:56:18;;;;;;;108.00;32.70;;;;;;;6.07;100.00;99879.97;10502406;28;20062;-69
2021/12/27 09:01:18;;;;;;;44.70;26.95;;;;;;;6.17;100.00;99890.41;10502677;28;20082;-67
2021/12/27 09:06:19;;;;;;;75.35;34.08;;;;;;;6.27;100.00;99909.69;10501876;28;20460;-69
2021/12/27 09:11:19;;;;;;;51.55;27.98;;;;;;;6.34;100.00;99917.81;10501465;28;20055;-70
2021/12/27 09:16:20;;;;;;;71.63;30.08;;;;;;;6.41;100.00;99937.53;10501460;28;20064;-69
2021/12/27 09:21:20;;;;;;;82.72;36.80;;;;;;;6.43;100.00;99940.88;10500056;28;20033;-69
2021/12/27 09:26:20;;;;;;;67.72;36.72;;;;;;;6.50;100.00;99931.81;10500534;28;20036;-69
2021/12/27 09:31:21;;;;;;;65.03;34.00;;;;;;;6.57;100.00;99929.16;10502300;28;20067;-68
2021/12/27 09:36:21;;;;;;;62.92;35.33;;;;;;;6.64;100.00;99919.31;10499048;28;20025;-68
2021/12/27 09:41:23;;;;;;;59.92;33.22;;;;;;;6.75;100.00;99916.06;10501220;28;20048;-68
2021/12/27 09:46:23;;;;;;;57.83;29.70;;;;;;;6.75;100.00;99893.72;10499603;28;20115;-71
2021/12/27 09:51:26;;;;;;;76.70;32.10;;;;;;;6.85;100.00;99880.72;10500075;28;20028;-68
2021/12/27 09:56:26;;;;;;;59.90;26.90;;;;;;;6.83;100.00;99873.88;10482487;28;20025;-69
2021/12/27 10:01:27;;;;;;;38.85;24.25;;;;;;;6.83;100.00;99865.81;10515677;28;20471;-68
2021/12/27 10:06:28;;;;;;;37.28;22.27;;;;;;;6.72;100.00;99877.97;10515425;28;20056;-68
2021/12/27 10:11:30;;;;;;;40.65;22.77;;;;;;;6.70;100.00;99885.41;10481687;28;20070;-68
2021/12/27 10:16:32;;;;;;;38.45;21.83;;;;;;;6.68;100.00;99882.09;10497937;28;20444;-68
2021/12/27 10:21:33;;;;;;;53.92;24.27;;;;;;;6.69;100.00;99886.44;10481196;28;20356;-68
2021/12/27 10:26:34;;;;;;;39.28;24.05;;;;;;;6.79;100.00;99886.06;10481038;28;20446;-68
2021/12/27 10:32:09;;;;;;;35.40;22.70;;;;;;;6.75;100.00;99877.56;10499438;28;20029;-68
2021/12/27 10:37:24;;;;;;;38.30;24.63;;;;;;;6.84;100.00;99873.69;10496105;28;20036;-68
2021/12/27 10:42:35;;;;;;;42.90;22.27;;;;;;;6.87;100.00;99869.78;10498328;28;20048;-68
2021/12/27 10:47:43;;;;;;;44.78;20.60;;;;;;;6.87;100.00;99864.41;10499018;28;20468;-68
2021/12/27 10:52:48;;;;;;;27.35;18.58;;;;;;;6.89;100.00;99873.94;10428838;28;20044;-69
2021/12/27 10:57:49;;;;;;;30.52;19.25;;;;;;;6.87;100.00;99862.53;10496405;28;20034;-68
2021/12/27 11:02:49;;;;;;;32.15;19.90;;;;;;;6.94;100.00;99851.81;10496853;28;20021;-68
2021/12/27 11:07:51;;;;;;;32.20;20.88;;;;;;;7.00;100.00;99837.56;10498695;28;20047;-68
2021/12/27 11:12:51;;;;;;;32.30;20.58;;;;;;;7.08;100.00;99839.22;10496684;28;20048;-69
2021/12/27 11:17:52;;;;;;;35.08;19.40;;;;;;;7.15;100.00;99824.78;10498437;28;20515;-68
2021/12/27 11:22:54;;;;;;;28.02;21.85;;;;;;;7.28;100.00;99818.59;10496412;28;20043;-68
2021/12/27 11:27:55;;;;;;;43.35;22.67;;;;;;;7.33;100.00;99807.22;10496469;28;20183;-68
2021/12/27 11:32:59;;;;;;;42.70;25.23;;;;;;;7.34;100.00;99809.72;10496759;28;20124;-67
2021/12/27 11:38:01;;;;;;;38.85;23.33;;;;;;;7.41;100.00;99812.44;10497255;28;20024;-70
2021/12/27 11:43:01;;;;;;;36.83;22.88;;;;;;;7.41;100.00;99797.09;10496673;28;20048;-69
2021/12/27 11:48:15;;;;;;;36.47;21.15;;;;;;;7.38;100.00;99780.50;10498444;28;20036;-70
2021/12/27 11:53:44;;;;;;;34.63;22.45;;;;;;;7.38;100.00;99759.78;10497621;28;20115;-69
2021/12/27 11:58:46;;;;;;;30.63;20.67;;;;;;;7.48;100.00;99756.69;10497487;28;20036;-69
2021/12/27 12:03:46;;;;;;;30.90;17.75;;;;;;;7.53;100.00;99762.31;10512985;28;20032;-70
2021/12/27 12:08:50;;;;;;;37.60;18.30;;;;;;;7.58;100.00;99764.38;10497950;28;20029;-70
2021/12/27 12:13:50;;;;;;;30.13;19.10;;;;;;;7.59;100.00;99764.16;10504545;28;20056;-69
2021/12/27 12:18:51;;;;;;;27.83;19.40;;;;;;;7.67;100.00;99750.50;10487645;28;20120;-68
2021/12/27 12:23:59;;;;;;;30.52;19.83;;;;;;;7.77;100.00;99746.56;10502110;28;20115;-70
2021/12/27 12:29:03;;;;;;;27.23;20.55;;;;;;;7.79;100.00;99744.50;10485523;28;20024;-70
2021/12/27 12:34:15;;;;;;;37.90;25.25;;;;;;;7.91;100.00;99740.13;10518685;28;20124;-71
2021/12/27 12:39:17;;;;;;;44.72;22.20;;;;;;;7.93;100.00;99741.56;10501892;28;20455;-68
2021/12/27 12:44:18;;;;;;;32.67;19.00;;;;;;;7.96;100.00;99748.41;10504335;28;20048;-69
2021/12/27 12:49:22;;;;;;;31.90;21.58;;;;;;;7.97;100.00;99736.59;10518161;28;20376;-68
2021/12/27 12:54:22;;;;;;;31.52;20.23;;;;;;;7.95;100.00;99732.47;10503229;28;20032;-69
2021/12/27 12:59:24;;;;;;;42.25;24.35;;;;;;;8.00;100.00;99724.56;10502632;28;20112;-69
2021/12/27 13:04:49;;;;;;;35.47;23.85;;;;;;;7.98;100.00;99721.25;10517848;28;20040;-70
2021/12/27 13:09:50;;;;;;;37.47;24.67;;;;;;;7.92;100.00;99725.63;10502820;28;20036;-69
2021/12/27 13:14:51;;;;;;;41.08;24.60;;;;;;;7.86;100.00;99723.75;10500857;28;20359;-70
2021/12/27 13:20:05;;;;;;;36.50;24.52;;;;;;;7.79;100.00;99712.16;10499107;28;20029;-70
2021/12/27 13:25:06;;;;;;;41.90;26.08;;;;;;;7.68;100.00;99703.63;10500450;28;20045;-71
2021/12/27 13:30:08;;;;;;;36.65;25.90;;;;;;;7.60;100.00;99709.25;10501267;28;20047;-72
2021/12/27 13:35:10;;;;;;;33.92;23.75;;;;;;;7.57;100.00;99715.06;10501830;28;20484;-71
2021/12/27 13:40:14;;;;;;;38.00;24.80;;;;;;;7.47;100.00;99703.88;10500147;28;20479;-69
2021/12/27 13:45:16;;;;;;;45.83;23.92;;;;;;;7.38;100.00;99705.09;10515617;28;20471;-67
2021/12/27 13:50:23;;;;;;;39.25;24.77;;;;;;;7.37;100.00;99703.44;10498771;28;20044;-67
2021/12/27 13:55:28;;;;;;;43.10;25.92;;;;;;;7.26;100.00;99706.75;10500518;28;20153;-69
2021/12/27 14:00:30;;;;;;;39.55;23.52;;;;;;;7.21;100.00;99700.13;10514582;28;20074;-69
2021/12/27 14:05:32;;;;;;;32.72;23.30;;;;;;;7.21;100.00;99699.25;10503880;28;20123;-71
2021/12/27 14:10:33;;;;;;;31.40;23.80;;;;;;;7.19;100.00;99694.09;10506337;28;20079;-69
2021/12/27 14:15:33;;;;;;;27.45;20.85;;;;;;;7.21;100.00;99694.72;10503178;28;20029;-70
2021/12/27 14:20:34;;;;;;;24.58;19.75;;;;;;;7.30;100.00;99697.22;10502473;28;20109;-70
2021/12/27 14:25:34;;;;;;;37.20;23.17;;;;;;;7.27;100.00;99695.75;10498540;28;20028;-70
2021/12/27 14:30:41;;;;;;;32.03;22.67;;;;;;;7.32;100.00;99690.59;10481413;28;20124;-68
2021/12/27 14:35:44;;;;;;;29.42;22.33;;;;;;;7.34;100.00;99687.69;10481419;28;20042;-69
2021/12/27 14:41:01;;;;;;;35.95;21.30;;;;;;;7.31;100.00;99677.34;10498454;28;20044;-71
2021/12/27 14:46:03;;;;;;;31.63;23.85;;;;;;;7.27;100.00;99671.53;10497271;28;20036;-74
2021/12/27 14:51:03;;;;;;;27.20;19.83;;;;;;;7.34;100.00;99674.22;10465042;28;20036;-70
2021/12/27 14:56:04;;;;;;;26.02;20.23;;;;;;;7.31;100.00;99663.88;10513754;28;20064;-70
2021/12/27 15:01:06;;;;;;;29.42;20.48;;;;;;;7.32;100.00;99666.34;10497306;28;20032;-70
2021/12/27 15:06:07;;;;;;;25.67;20.80;;;;;;;7.29;100.00;99656.00;10513260;28;20063;-69
2021/12/27 15:11:08;;;;;;;26.75;19.60;;;;;;;7.34;100.00;99650.84;10438796;28;20040;-69
2021/12/27 15:16:08;;;;;;;39.03;21.38;;;;;;;7.36;100.00;99656.00;10496830;28;20032;-73
2021/12/27 15:21:09;;;;;;;24.90;20.98;;;;;;;7.40;100.00;99649.16;10497182;28;20032;-72
2021/12/27 15:26:09;;;;;;;29.52;19.73;;;;;;;7.33;100.00;99633.00;10497790;28;20107;-71
2021/12/27 15:31:10;;;;;;;22.48;19.90;;;;;;;7.33;100.00;99630.31;10498744;28;20090;-71
2021/12/27 15:36:10;;;;;;;24.13;18.27;;;;;;;7.32;100.00;99641.28;10451113;28;20053;-70
2021/12/27 15:41:11;;;;;;;27.60;18.90;;;;;;;7.27;100.00;99633.81;10479232;28;20123;-69
2021/12/27 15:46:11;;;;;;;32.42;18.92;;;;;;;7.28;100.00;99630.13;10501127;28;20353;-68
2021/12/27 15:51:12;;;;;;;20.27;18.17;;;;;;;7.32;100.00;99633.22;10503381;28;20044;-71
2021/12/27 15:56:12;;;;;;;23.15;16.90;;;;;;;7.27;100.00;99627.63;10504422;28;20062;-71
2021/12/27 16:01:13;;;;;;;22.58;17.25;;;;;;;7.19;100.00;99625.97;10503619;28;20043;-70
2021/12/27 16:06:13;;;;;;;18.17;16.17;;;;;;;7.17;100.00;99628.84;10502477;28;20102;-70
2021/12/27 16:11:13;;;;;;;18.65;15.77;;;;;;;7.15;100.00;99625.56;10504177;28;20468;-70
2021/12/27 16:16:14;;;;;;;21.88;15.13;;;;;;;7.09;100.00;99621.00;10504036;28;20183;-69
2021/12/27 16:21:14;;;;;;;22.63;16.83;;;;;;;7.09;100.00;99615.59;10503667;28;20098;-69
2021/12/27 16:26:18;;;;;;;19.30;16.58;;;;;;;7.11;100.00;99610.00;10503049;28;20035;-69
2021/12/27 16:31:19;;;;;;;18.92;14.00;;;;;;;7.12;100.00;99617.06;10503256;28;20452;-70
2021/12/27 16:36:20;;;;;;;18.35;15.30;;;;;;;7.20;100.00;99617.66;10519187;28;20037;-69
2021/12/27 16:41:20;;;;;;;19.42;16.38;;;;;;;7.27;100.00;99620.34;10503258;28;20476;-69
2021/12/27 16:46:21;;;;;;;17.25;15.43;;;;;;;7.32;100.00;99609.81;10501492;28;20060;-69
2021/12/27 16:51:21;;;;;;;31.63;15.85;;;;;;;7.33;100.00;99616.00;10485820;28;20036;-69
2021/12/27 16:56:22;;;;;;;20.55;14.88;;;;;;;7.38;100.00;99610.84;10502384;28;20041;-70
2021/12/27 17:01:22;;;;;;;14.95;13.30;;;;;;;7.37;100.00;99601.09;10501923;28;20036;-70
2021/12/27 17:06:23;;;;;;;18.17;16.00;;;;;;;7.39;100.00;99605.22;10502758;28;20025;-70
2021/12/27 17:11:23;;;;;;;19.75;15.27;;;;;;;7.38;100.00;99600.91;10502624;28;20036;-70
2021/12/27 17:16:23;;;;;;;17.50;15.00;;;;;;;7.40;100.00;99600.66;10500522;28;20058;-70
2021/12/27 17:21:24;;;;;;;15.75;14.15;;;;;;;7.43;100.00;99590.34;10502340;28;20090;-69
2021/12/27 17:26:24;;;;;;;22.98;15.23;;;;;;;7.43;100.00;99593.03;10501252;28;20036;-69
2021/12/27 17:31:25;;;;;;;22.75;14.82;;;;;;;7.44;100.00;99581.22;10502236;28;20040;-70
2021/12/27 17:36:25;;;;;;;17.17;13.20;;;;;;;7.51;100.00;99575.81;10499981;28;20028;-70
2021/12/27 17:41:27;;;;;;;13.55;12.13;;;;;;;7.58;100.00;99582.00;10499309;28;20052;-70
2021/12/27 17:46:27;;;;;;;19.08;13.98;;;;;;;7.62;100.00;99575.16;10500331;28;20430;-70
2021/12/27 17:51:27;;;;;;;21.88;12.82;;;;;;;7.69;100.00;99575.16;10500454;28;20036;-69
2021/12/27 17:56:28;;;;;;;18.27;11.88;;;;;;;7.68;100.00;99570.78;10501348;28;20377;-69
2021/12/27 18:01:29;;;;;;;17.40;12.80;;;;;;;7.69;100.00;99567.91;10500525;28;20074;-70
2021/12/27 18:06:29;;;;;;;16.40;12.77;;;;;;;7.68;100.00;99555.44;10498894;28;20032;-70
2021/12/27 18:11:30;;;;;;;17.25;12.13;;;;;;;7.77;100.00;99558.75;10498261;28;20028;-70
2021/12/27 18:16:30;;;;;;;14.48;12.55;;;;;;;7.84;100.00;99559.53;10500453;28;20036;-70
2021/12/27 18:21:34;;;;;;;22.92;12.48;;;;;;;7.85;100.00;99549.63;10500028;28;20037;-70
2021/12/27 18:26:35;;;;;;;14.65;13.02;;;;;;;7.89;100.00;99558.91;10497596;28;20062;-70
2021/12/27 18:31:40;;;;;;;13.60;12.15;;;;;;;7.95;100.00;99555.38;10496973;28;20079;-68
2021/12/27 18:36:40;;;;;;;13.50;11.43;;;;;;;7.97;100.00;99549.75;10513791;28;20048;-70
2021/12/27 18:41:41;;;;;;;20.60;14.27;;;;;;;8.01;100.00;99554.53;10513865;28;20384;-69
2021/12/27 18:46:41;;;;;;;20.92;12.85;;;;;;;8.03;100.00;99547.03;10497260;28;20376;-69
2021/12/27 18:51:42;;;;;;;16.83;14.57;;;;;;;8.06;100.00;99543.91;10496739;28;20162;-70
2021/12/27 18:56:42;;;;;;;14.23;12.68;;;;;;;8.06;100.00;99543.91;10512796;28;20494;-70
2021/12/27 19:01:42;;;;;;;17.02;13.77;;;;;;;8.12;100.00;99545.75;10512650;28;20064;-70
2021/12/27 19:06:43;;;;;;;18.80;14.80;;;;;;;8.15;100.00;99539.94;10498825;28;20037;-69
2021/12/27 19:11:43;;;;;;;20.70;14.02;;;;;;;8.14;100.00;99538.28;10498253;28;20044;-70
2021/12/27 19:16:44;;;;;;;15.07;12.27;;;;;;;8.10;100.00;99531.69;10497170;28;20438;-70
2021/12/27 19:21:45;;;;;;;15.45;13.25;;;;;;;8.11;100.00;99524.41;10502956;28;20040;-70
2021/12/27 19:26:45;;;;;;;14.32;12.88;;;;;;;8.11;100.00;99522.53;10505956;28;20036;-68
2021/12/27 19:31:46;;;;;;;13.93;11.63;;;;;;;8.09;100.00;99519.22;10505112;28;20024;-68
2021/12/27 19:36:46;;;;;;;24.27;12.88;;;;;;;8.09;100.00;99513.81;10486811;28;20025;-69
2021/12/27 19:41:47;;;;;;;14.23;12.43;;;;;;;8.14;100.00;99518.59;10486634;28;20163;-69
2021/12/27 19:46:47;;;;;;;13.13;10.70;;;;;;;8.17;100.00;99523.56;10506835;28;20047;-69
2021/12/27 19:51:48;;;;;;;11.00;9.88;;;;;;;8.20;100.00;99515.03;10505039;28;20104;-70
2021/12/27 19:56:51;;;;;;;11.77;10.60;;;;;;;8.22;100.00;99510.22;10504764;28;20147;-72
2021/12/27 20:01:51;;;;;;;12.73;11.30;;;;;;;8.29;100.00;99515.56;10502895;28;20041;-71
2021/12/27 20:06:52;;;;;;;15.30;11.93;;;;;;;8.28;100.00;99511.25;10485506;28;20033;-69
2021/12/27 20:11:52;;;;;;;13.02;11.70;;;;;;;8.31;100.00;99506.22;10503107;28;20036;-69
2021/12/27 20:16:53;;;;;;;14.10;12.65;;;;;;;8.37;100.00;99504.56;10504757;28;20060;-70
2021/12/27 20:21:53;;;;;;;18.13;16.35;;;;;;;8.42;100.00;99509.31;10503004;28;20435;-71
2021/12/27 20:26:53;;;;;;;20.98;15.63;;;;;;;8.44;100.00;99504.53;10503241;28;20036;-71
2021/12/27 20:31:54;;;;;;;33.30;18.27;;;;;;;8.52;100.00;99506.94;10502818;28;20560;-71
2021/12/27 20:36:54;;;;;;;21.45;18.92;;;;;;;8.57;100.00;99494.47;10503274;28;20033;-71
2021/12/27 20:41:58;;;;;;;25.25;20.40;;;;;;;8.65;100.00;99508.72;10501822;28;20064;-70
2021/12/27 20:46:58;;;;;;;27.33;20.60;;;;;;;8.73;100.00;99500.38;10503803;28;20500;-70
2021/12/27 20:51:59;;;;;;;23.48;20.38;;;;;;;8.75;100.00;99498.28;10502618;28;20111;-68
2021/12/27 20:56:59;;;;;;;32.67;22.10;;;;;;;8.76;100.00;99489.13;10500230;28;20391;-69
2021/12/27 21:02:00;;;;;;;35.17;20.95;;;;;;;8.76;100.00;99495.34;10501620;28;20036;-70
2021/12/27 21:07:00;;;;;;;28.58;23.15;;;;;;;8.79;100.00;99491.41;10500116;28;20369;-70
2021/12/27 21:12:00;;;;;;;27.08;22.00;;;;;;;8.80;100.00;99490.34;10502482;28;20119;-69
2021/12/27 21:17:01;;;;;;;36.55;26.73;;;;;;;8.80;100.00;99480.38;10506683;28;20033;-70
2021/12/27 21:22:01;;;;;;;33.35;22.15;;;;;;;8.87;100.00;99487.59;10504862;28;20456;-69
2021/12/27 21:27:02;;;;;;;37.00;23.80;;;;;;;8.88;100.00;99479.28;10500319;28;20051;-70
2021/12/27 21:32:03;;;;;;;43.78;26.35;;;;;;;8.89;100.00;99472.81;10501050;28;20516;-70
2021/12/27 21:37:03;;;;;;;33.35;21.95;;;;;;;8.80;100.00;99479.53;10500985;28;20037;-70
2021/12/27 21:42:07;;;;;;;37.83;20.98;;;;;;;8.83;100.00;99474.53;10500673;28;20118;-69
2021/12/27 21:47:07;;;;;;;43.92;25.85;;;;;;;8.79;100.00;99473.31;10501108;28;20093;-69
2021/12/27 21:52:07;;;;;;;31.20;22.58;;;;;;;8.73;100.00;99463.41;10500837;28;20111;-70
2021/12/27 21:57:09;;;;;;;32.00;19.38;;;;;;;8.64;100.00;99464.72;10499372;28;20036;-71
2021/12/27 22:02:09;;;;;;;32.78;19.20;;;;;;;8.70;100.00;99466.56;10497893;28;20024;-70
2021/12/27 22:07:10;;;;;;;28.30;20.27;;;;;;;8.69;100.00;99461.38;10498544;28;20498;-70
2021/12/27 22:12:10;;;;;;;21.98;16.75;;;;;;;8.52;100.00;99453.00;10498293;28;20044;-71
2021/12/27 22:17:11;;;;;;;25.27;16.05;;;;;;;8.36;100.00;99452.47;10514418;28;20119;-70
2021/12/27 22:22:11;;;;;;;28.17;14.70;;;;;;;8.30;100.00;99458.75;10514582;28;20041;-69
2021/12/27 22:27:11;;;;;;;27.23;15.68;;;;;;;8.18;100.00;99455.09;10498063;28;20064;-70
2021/12/27 22:32:12;;;;;;;35.03;17.90;;;;;;;8.07;100.00;99448.53;10515041;28;20135;-69
2021/12/27 22:37:12;;;;;;;33.42;21.52;;;;;;;7.99;100.00;99451.47;10497737;28;20029;-71
2021/12/27 22:42:13;;;;;;;41.58;23.42;;;;;;;7.97;100.00;99456.22;10481179;28;20056;-68
2021/12/27 22:47:15;;;;;;;35.55;20.70;;;;;;;7.89;100.00;99451.13;10514717;28;20062;-70
2021/12/27 22:52:17;;;;;;;36.05;22.25;;;;;;;7.87;100.00;99434.31;10498337;28;20135;-70